createdAt,value
2024-02-15T00:07:29.724Z,45.66
2024-02-15T00:17:36.420Z,45.55
2024-02-15T00:27:42.027Z,45.47
2024-02-15T00:37:48.505Z,45.72
2024-02-15T00:47:55.637Z,45.92
2024-02-15T00:58:01.189Z,45.84
2024-02-15T01:08:06.797Z,45.56
2024-02-15T01:18:12.696Z,45.41
2024-02-15T01:28:18.200Z,45.25
2024-02-15T01:38:23.552Z,45.07
2024-02-15T01:48:29.327Z,44.79
2024-02-15T01:58:35.856Z,44.49
2024-02-15T02:08:41.172Z,44.44
2024-02-15T02:18:48.578Z,44.39
2024-02-15T02:28:54.819Z,44.41
2024-02-15T02:39:02.405Z,44.43
2024-02-15T02:49:09.334Z,44.43
2024-02-15T02:59:15.078Z,44.35
2024-02-15T03:09:22.037Z,44.39
2024-02-15T03:19:28.265Z,44.33
2024-02-15T03:29:35.495Z,44.29
2024-02-15T03:39:40.990Z,44.27
2024-02-15T03:49:46.297Z,44.31
2024-02-15T03:59:55.834Z,44.34
2024-02-15T04:10:02.422Z,44.41
2024-02-15T04:20:08.854Z,44.40
2024-02-15T04:30:15.747Z,44.35
2024-02-15T04:40:21.598Z,44.32
2024-02-15T04:50:27.379Z,44.27
2024-02-15T05:00:32.870Z,44.27
2024-02-15T05:10:40.144Z,44.26
2024-02-15T05:20:45.949Z,44.27
2024-02-15T05:30:51.961Z,44.29
2024-02-15T05:40:58.091Z,44.26
2024-02-15T05:51:03.782Z,44.40
2024-02-15T06:01:12.151Z,44.75
2024-02-15T06:11:21.585Z,44.65
2024-02-15T06:21:27.449Z,44.67
2024-02-15T06:31:51.243Z,44.71
2024-02-15T06:41:57.733Z,44.66
2024-02-15T06:52:03.965Z,44.65
2024-02-15T07:02:09.852Z,44.67
2024-02-15T07:12:16.705Z,44.86
2024-02-15T07:22:23.528Z,45.50
2024-02-15T07:32:29.298Z,45.60
2024-02-15T07:42:36.325Z,45.67
2024-02-15T07:52:42.301Z,45.80
2024-02-15T08:02:48.981Z,45.73
2024-02-15T08:12:55.269Z,45.79
2024-02-15T08:23:01.073Z,45.92
2024-02-15T08:33:06.904Z,45.69
2024-02-15T08:43:13.152Z,45.10
2024-02-15T08:53:20.593Z,44.59
2024-02-15T09:03:26.162Z,44.10
2024-02-15T09:13:33.738Z,43.56
2024-02-15T09:23:40.436Z,43.17
2024-02-15T09:33:47.112Z,42.69
2024-02-15T09:43:53.473Z,42.26
2024-02-15T09:53:59.753Z,41.90
2024-02-15T10:04:08.545Z,41.41
2024-02-15T10:14:14.002Z,41.03
2024-02-15T10:24:20.996Z,40.71
2024-02-15T10:34:29.045Z,40.53
2024-02-15T10:44:36.148Z,40.82
2024-02-15T10:54:49.342Z,41.21
2024-02-15T11:04:58.036Z,41.12
2024-02-15T11:15:03.560Z,40.92
2024-02-15T11:25:13.085Z,40.67
2024-02-15T11:35:19.516Z,40.55
2024-02-15T11:45:26.941Z,39.88
2024-02-15T11:55:34.200Z,39.39
2024-02-15T12:05:57.652Z,39.31
2024-02-15T12:16:20.750Z,39.52
2024-02-15T12:26:26.405Z,39.66
2024-02-15T12:36:34.040Z,39.91
2024-02-15T12:46:40.362Z,40.03
2024-02-15T12:56:45.897Z,40.24
2024-02-15T13:06:51.546Z,40.49
2024-02-15T13:16:57.079Z,41.63
2024-02-15T13:27:02.621Z,42.55
2024-02-15T13:37:07.996Z,43.58
2024-02-15T13:47:14.593Z,43.94
2024-02-15T13:57:20.279Z,44.91
2024-02-15T14:07:25.814Z,45.54
2024-02-15T14:17:31.364Z,45.63
2024-02-15T14:27:36.827Z,46.02
2024-02-15T14:37:43.321Z,46.34
2024-02-15T14:47:49.225Z,46.62
2024-02-15T14:57:54.845Z,46.89
2024-02-15T15:08:17.877Z,47.16
2024-02-15T15:18:24.054Z,47.47
2024-02-15T15:28:30.306Z,48.06
2024-02-15T15:38:35.953Z,48.49
2024-02-15T15:48:41.825Z,48.95
2024-02-15T15:58:49.958Z,49.38
2024-02-15T16:08:58.917Z,49.81
2024-02-15T16:19:05.962Z,50.22
2024-02-15T16:29:11.774Z,50.55
2024-02-15T16:39:17.489Z,50.72
2024-02-15T16:49:23.141Z,50.94
2024-02-15T16:59:52.815Z,51.08
2024-02-15T17:09:59.391Z,51.50
2024-02-15T17:20:15.786Z,51.71
2024-02-15T17:30:21.651Z,51.85
2024-02-15T17:40:27.692Z,52.07
2024-02-15T17:50:33.582Z,52.01
2024-02-15T18:00:42.087Z,52.06
2024-02-15T18:10:48.590Z,52.19
2024-02-15T18:20:54.213Z,52.42
2024-02-15T18:30:59.755Z,52.38
2024-02-15T18:41:07.230Z,52.01
2024-02-15T18:51:16.433Z,51.98
2024-02-15T19:01:24.757Z,52.29
2024-02-15T19:11:30.393Z,52.45
2024-02-15T19:21:35.825Z,52.62
2024-02-15T19:31:42.078Z,52.77
2024-02-15T19:41:48.346Z,52.82
2024-02-15T19:51:54.160Z,52.74
2024-02-15T20:01:59.753Z,52.81
2024-02-15T20:12:05.540Z,53.08
2024-02-15T20:22:11.056Z,53.24
2024-02-15T20:32:20.064Z,53.38
2024-02-15T20:42:25.698Z,53.54
2024-02-15T20:52:31.721Z,53.53
2024-02-15T21:02:37.264Z,53.54
2024-02-15T21:12:43.096Z,53.53
2024-02-15T21:22:51.039Z,53.57
2024-02-15T21:32:57.114Z,53.48
2024-02-15T21:43:02.585Z,53.47
2024-02-15T21:53:08.057Z,53.42
2024-02-15T22:03:14.591Z,53.30
2024-02-15T22:13:20.660Z,53.32
2024-02-15T22:23:26.174Z,53.24
2024-02-15T22:33:32.408Z,53.05
2024-02-15T22:43:38.219Z,52.91
2024-02-15T22:53:45.075Z,52.65
2024-02-15T23:03:50.692Z,52.39
2024-02-15T23:13:56.793Z,52.28
2024-02-15T23:24:02.353Z,51.88
2024-02-15T23:34:09.487Z,51.68
2024-02-15T23:44:17.228Z,51.51
2024-02-15T23:54:23.052Z,51.47
